Cerlak, Russia
Current Conditions -  °F | °C
As of 10:00 AM on Wednesday 26 Nov 2014 (Local Time) from UNOO Reporting Station
Overcast Overcast  
Wind Chill:   Ceiling: 1600
Heat Index: 18°   Visibility: 6mi
Dew Point: 14°   Wind: 16mph
Humidity: 86%   Direction: 250°WSW
Pressure: 29.8"   Gusts: NA
Location:  54.17°N, 74.8°E
Report Text: UNOO 260400Z 25007MPS 9999 BKN016 OVC066 M08/M10 Q1009 25390132NOSIG RMK QFE749
Loading
Personal Weather Stations






























Interactive Weather Map New forecast layout! Learn more

10-Day Weather Forecast

Advertisements
Track Severe Weather on mobile